createdAt,value
2023-05-10T00:00:32.824Z,855.00
2023-05-10T00:01:32.865Z,855.00
2023-05-10T00:02:32.975Z,853.00
2023-05-10T00:03:32.904Z,853.00
2023-05-10T00:04:32.922Z,854.00
2023-05-10T00:05:32.878Z,857.00
2023-05-10T00:06:32.929Z,857.00
2023-05-10T00:07:32.948Z,852.00
2023-05-10T00:08:33.121Z,850.00
2023-05-10T00:09:32.983Z,852.00
2023-05-10T00:10:33.025Z,856.00
2023-05-10T00:11:33.031Z,853.00
2023-05-10T00:12:33.045Z,854.00
2023-05-10T00:13:33.117Z,854.00
2023-05-10T00:14:33.104Z,857.00
2023-05-10T00:15:33.094Z,853.00
2023-05-10T00:16:33.186Z,850.00
2023-05-10T00:17:33.154Z,849.00
2023-05-10T00:18:33.656Z,847.00
2023-05-10T00:19:33.194Z,846.00
2023-05-10T00:20:33.169Z,847.00
2023-05-10T00:21:33.193Z,849.00
2023-05-10T00:22:33.224Z,852.00
2023-05-10T00:23:33.264Z,852.00
2023-05-10T00:24:33.264Z,853.00
2023-05-10T00:25:33.319Z,852.00
2023-05-10T00:26:33.329Z,852.00
2023-05-10T00:27:33.369Z,854.00
2023-05-10T00:28:33.371Z,852.00
2023-05-10T00:29:33.413Z,855.00
2023-05-10T00:30:33.412Z,856.00
2023-05-10T00:31:33.526Z,850.00
2023-05-10T00:32:33.533Z,853.00
2023-05-10T00:33:33.614Z,855.00
2023-05-10T00:34:33.511Z,853.00
2023-05-10T00:35:33.548Z,851.00
2023-05-10T00:36:33.569Z,849.00
2023-05-10T00:37:33.610Z,847.00
2023-05-10T00:38:33.605Z,845.00
2023-05-10T00:39:33.636Z,845.00
2023-05-10T00:40:33.650Z,844.00
2023-05-10T00:41:33.715Z,844.00
2023-05-10T00:42:33.695Z,844.00
2023-05-10T00:43:33.747Z,847.00
2023-05-10T00:44:33.744Z,845.00
2023-05-10T00:45:33.807Z,846.00
2023-05-10T00:46:33.832Z,848.00
2023-05-10T00:47:33.850Z,850.00
2023-05-10T00:48:33.862Z,848.00
2023-05-10T00:49:33.884Z,847.00
2023-05-10T00:50:33.923Z,844.00
2023-05-10T00:51:33.940Z,843.00
2023-05-10T00:52:33.926Z,841.00
2023-05-10T00:53:34.144Z,840.00
2023-05-10T00:54:33.995Z,839.00
2023-05-10T00:55:34.045Z,837.00
2023-05-10T00:56:34.067Z,838.00
2023-05-10T00:57:34.077Z,839.00
2023-05-10T00:58:34.130Z,838.00
2023-05-10T00:59:34.128Z,838.00
2023-05-10T01:00:34.168Z,837.00
2023-05-10T01:01:34.234Z,837.00
2023-05-10T01:02:34.250Z,836.00
2023-05-10T01:03:34.309Z,836.00
2023-05-10T01:04:34.334Z,834.00
2023-05-10T01:05:34.298Z,834.00
2023-05-10T01:06:34.313Z,834.00
2023-05-10T01:07:34.367Z,835.00
2023-05-10T01:08:34.393Z,833.00
2023-05-10T01:09:34.407Z,833.00
2023-05-10T01:10:34.447Z,834.00
2023-05-10T01:11:34.448Z,833.00
2023-05-10T01:12:34.535Z,830.00
2023-05-10T01:13:34.534Z,830.00
2023-05-10T01:14:34.527Z,830.00
2023-05-10T01:15:34.609Z,829.00
2023-05-10T01:16:34.694Z,829.00
2023-05-10T01:17:34.638Z,831.00
2023-05-10T01:18:34.674Z,831.00
2023-05-10T01:19:34.672Z,830.00
2023-05-10T01:20:34.762Z,829.00
2023-05-10T01:21:34.775Z,829.00
2023-05-10T01:22:34.774Z,829.00
2023-05-10T01:23:35.183Z,831.00
2023-05-10T01:24:34.835Z,832.00
2023-05-10T01:25:34.854Z,829.00
2023-05-10T01:26:34.927Z,830.00
2023-05-10T01:27:34.926Z,830.00
2023-05-10T01:28:35.140Z,829.00
2023-05-10T01:29:34.990Z,829.00
2023-05-10T01:30:34.988Z,827.00
2023-05-10T01:31:35.052Z,826.00
2023-05-10T01:32:35.105Z,823.00
2023-05-10T01:33:35.165Z,821.00
2023-05-10T01:34:35.127Z,820.00
2023-05-10T01:35:35.192Z,819.00
2023-05-10T01:36:35.169Z,818.00
2023-05-10T01:37:35.282Z,817.00
2023-05-10T01:38:35.698Z,817.00
2023-05-10T01:39:35.289Z,819.00
2023-05-10T01:40:35.340Z,816.00
2023-05-10T01:41:35.343Z,816.00
2023-05-10T01:42:35.365Z,817.00
2023-05-10T01:43:35.421Z,819.00
2023-05-10T01:44:35.420Z,820.00
2023-05-10T01:45:35.478Z,822.00
2023-05-10T01:46:35.513Z,822.00
2023-05-10T01:47:35.590Z,821.00
2023-05-10T01:48:35.571Z,821.00
2023-05-10T01:49:35.603Z,824.00
2023-05-10T01:50:35.656Z,822.00
2023-05-10T01:51:35.684Z,820.00
2023-05-10T01:52:35.740Z,821.00
2023-05-10T01:53:35.728Z,822.00
2023-05-10T01:54:35.779Z,822.00
2023-05-10T01:55:35.801Z,821.00
2023-05-10T01:56:35.831Z,818.00
2023-05-10T01:57:35.860Z,816.00
2023-05-10T01:58:35.939Z,816.00
2023-05-10T01:59:35.911Z,812.00
2023-05-10T02:00:35.983Z,814.00
2023-05-10T02:01:35.986Z,814.00
2023-05-10T02:02:36.037Z,812.00
2023-05-10T02:03:36.104Z,809.00
2023-05-10T02:04:36.144Z,809.00
2023-05-10T02:05:36.125Z,810.00
2023-05-10T02:06:36.185Z,811.00
2023-05-10T02:07:36.177Z,810.00
2023-05-10T02:08:36.224Z,812.00
2023-05-10T02:09:36.263Z,811.00
2023-05-10T02:10:36.281Z,808.00
2023-05-10T02:11:36.332Z,808.00
2023-05-10T02:12:36.361Z,807.00
2023-05-10T02:13:36.681Z,808.00
2023-05-10T02:14:36.422Z,806.00
2023-05-10T02:15:36.461Z,804.00
2023-05-10T02:16:36.500Z,803.00
2023-05-10T02:17:36.566Z,805.00
2023-05-10T02:18:36.548Z,806.00
2023-05-10T02:19:36.562Z,806.00
2023-05-10T02:20:36.609Z,807.00
2023-05-10T02:21:36.655Z,807.00
2023-05-10T02:22:36.697Z,806.00
2023-05-10T02:23:36.734Z,805.00
2023-05-10T02:24:36.736Z,803.00
2023-05-10T02:25:36.783Z,804.00
2023-05-10T02:26:36.822Z,802.00
2023-05-10T02:27:36.830Z,805.00
2023-05-10T02:28:36.882Z,803.00
2023-05-10T02:29:36.913Z,805.00
2023-05-10T02:30:36.956Z,804.00
2023-05-10T02:31:37.017Z,806.00
2023-05-10T02:32:37.022Z,808.00
2023-05-10T02:33:37.045Z,808.00
2023-05-10T02:34:37.069Z,808.00
2023-05-10T02:35:37.122Z,807.00
2023-05-10T02:36:37.161Z,806.00
2023-05-10T02:37:37.188Z,802.00
2023-05-10T02:38:37.709Z,801.00
2023-05-10T02:39:37.257Z,800.00
2023-05-10T02:40:37.296Z,797.00
2023-05-10T02:41:37.340Z,796.00
2023-05-10T02:42:37.369Z,799.00
2023-05-10T02:43:37.426Z,802.00
2023-05-10T02:44:37.417Z,800.00
2023-05-10T02:45:37.475Z,799.00
2023-05-10T02:46:37.522Z,800.00
2023-05-10T02:47:37.572Z,801.00
2023-05-10T02:48:37.582Z,799.00
2023-05-10T02:49:37.608Z,797.00
2023-05-10T02:50:37.661Z,799.00
2023-05-10T02:51:37.684Z,801.00
2023-05-10T02:52:37.742Z,799.00
2023-05-10T02:53:37.757Z,799.00
2023-05-10T02:54:37.809Z,798.00
2023-05-10T02:55:37.844Z,796.00
2023-05-10T02:56:37.889Z,801.00
2023-05-10T02:57:37.892Z,804.00
2023-05-10T02:58:37.941Z,805.00
2023-05-10T02:59:38.012Z,804.00
2023-05-10T03:00:38.041Z,801.00
2023-05-10T03:01:38.114Z,800.00
2023-05-10T03:02:38.115Z,799.00
2023-05-10T03:03:38.220Z,798.00
2023-05-10T03:04:38.190Z,795.00
2023-05-10T03:05:38.241Z,794.00
2023-05-10T03:06:38.228Z,792.00
2023-05-10T03:07:38.322Z,793.00
2023-05-10T03:08:38.358Z,794.00
2023-05-10T03:09:38.368Z,796.00
2023-05-10T03:10:38.401Z,796.00
2023-05-10T03:11:38.497Z,794.00
2023-05-10T03:12:38.500Z,795.00
2023-05-10T03:13:38.570Z,792.00
2023-05-10T03:14:38.582Z,791.00
2023-05-10T03:15:38.644Z,790.00
2023-05-10T03:16:38.654Z,790.00
2023-05-10T03:17:38.751Z,793.00
2023-05-10T03:18:38.757Z,795.00
2023-05-10T03:19:38.790Z,797.00
2023-05-10T03:20:38.792Z,796.00
2023-05-10T03:21:38.824Z,796.00
2023-05-10T03:22:38.852Z,793.00
2023-05-10T03:23:38.924Z,788.00
2023-05-10T03:24:38.979Z,788.00
2023-05-10T03:25:38.996Z,788.00
2023-05-10T03:26:39.038Z,787.00
2023-05-10T03:27:39.044Z,787.00
2023-05-10T03:28:39.081Z,788.00
2023-05-10T03:29:39.112Z,789.00
2023-05-10T03:30:39.147Z,789.00
2023-05-10T03:31:39.261Z,790.00
2023-05-10T03:32:39.265Z,791.00
2023-05-10T03:33:39.699Z,792.00
2023-05-10T03:34:39.382Z,791.00
2023-05-10T03:35:39.356Z,792.00
2023-05-10T03:36:39.391Z,792.00
2023-05-10T03:37:39.430Z,791.00
2023-05-10T03:38:39.701Z,787.00
2023-05-10T03:39:39.527Z,786.00
2023-05-10T03:40:39.538Z,786.00
2023-05-10T03:41:39.570Z,786.00
2023-05-10T03:42:39.616Z,781.00
2023-05-10T03:43:39.732Z,783.00
2023-05-10T03:44:39.699Z,780.00
2023-05-10T03:45:39.744Z,778.00
2023-05-10T03:46:39.791Z,776.00
2023-05-10T03:47:39.854Z,778.00
2023-05-10T03:48:40.217Z,779.00
2023-05-10T03:49:39.940Z,779.00
2023-05-10T03:50:39.949Z,778.00
2023-05-10T03:51:39.983Z,779.00
2023-05-10T03:52:40.049Z,781.00
2023-05-10T03:53:40.108Z,782.00
2023-05-10T03:54:40.106Z,780.00
2023-05-10T03:55:40.183Z,780.00
2023-05-10T03:56:40.168Z,776.00
2023-05-10T03:57:40.257Z,775.00
2023-05-10T03:58:40.692Z,773.00
2023-05-10T03:59:40.350Z,772.00
2023-05-10T04:00:40.323Z,771.00
2023-05-10T04:01:40.427Z,772.00
2023-05-10T04:02:40.525Z,775.00
2023-05-10T04:03:40.541Z,775.00
2023-05-10T04:04:40.720Z,774.00
2023-05-10T04:05:40.562Z,773.00
2023-05-10T04:06:40.674Z,773.00
2023-05-10T04:07:40.636Z,773.00
2023-05-10T04:08:40.677Z,773.00
2023-05-10T04:09:40.734Z,775.00
2023-05-10T04:10:40.762Z,777.00
2023-05-10T04:11:40.807Z,775.00
2023-05-10T04:12:40.854Z,775.00
2023-05-10T04:13:40.909Z,773.00
2023-05-10T04:14:41.236Z,772.00
2023-05-10T04:15:40.988Z,768.00
2023-05-10T04:16:41.066Z,769.00
2023-05-10T04:17:41.120Z,772.00
2023-05-10T04:18:41.160Z,771.00
2023-05-10T04:19:41.209Z,769.00
2023-05-10T04:20:41.238Z,770.00
2023-05-10T04:21:41.273Z,774.00
2023-05-10T04:22:41.354Z,773.00
2023-05-10T04:23:41.358Z,771.00
2023-05-10T04:24:41.423Z,771.00
2023-05-10T04:25:41.448Z,766.00
2023-05-10T04:26:41.517Z,767.00
2023-05-10T04:27:41.550Z,764.00
2023-05-10T04:28:41.637Z,764.00
2023-05-10T04:29:41.706Z,764.00
2023-05-10T04:30:41.726Z,764.00
2023-05-10T04:31:41.741Z,767.00
2023-05-10T04:32:41.828Z,767.00
2023-05-10T04:33:41.838Z,766.00
2023-05-10T04:34:41.884Z,765.00
2023-05-10T04:35:41.912Z,762.00
2023-05-10T04:36:41.958Z,764.00
2023-05-10T04:37:42.016Z,765.00
2023-05-10T04:38:42.069Z,766.00
2023-05-10T04:39:42.516Z,765.00
2023-05-10T04:40:42.199Z,765.00
2023-05-10T04:41:42.227Z,765.00
2023-05-10T04:42:42.271Z,763.00
2023-05-10T04:43:42.327Z,765.00
2023-05-10T04:44:42.715Z,764.00
2023-05-10T04:45:42.417Z,764.00
2023-05-10T04:46:42.567Z,762.00
2023-05-10T04:47:42.530Z,760.00
2023-05-10T04:48:42.561Z,761.00
2023-05-10T04:49:42.738Z,761.00
2023-05-10T04:50:42.616Z,759.00
2023-05-10T04:51:42.688Z,755.00
2023-05-10T04:52:42.718Z,756.00
2023-05-10T04:53:46.404Z,756.00
2023-05-10T04:54:43.758Z,753.00
2023-05-10T04:55:42.732Z,748.00
2023-05-10T04:56:42.748Z,750.00
2023-05-10T04:57:42.750Z,750.00
2023-05-10T04:58:42.726Z,748.00
2023-05-10T04:59:42.737Z,750.00
2023-05-10T05:00:42.706Z,752.00
2023-05-10T05:01:42.721Z,755.00
2023-05-10T05:02:42.866Z,756.00
2023-05-10T05:03:42.781Z,757.00
2023-05-10T05:04:42.772Z,757.00
2023-05-10T05:05:42.712Z,758.00
2023-05-10T05:06:42.787Z,758.00
2023-05-10T05:07:42.807Z,756.00
2023-05-10T05:08:42.928Z,755.00
2023-05-10T05:09:42.918Z,755.00
2023-05-10T05:10:42.962Z,754.00
2023-05-10T05:11:43.002Z,754.00
2023-05-10T05:12:43.110Z,753.00
2023-05-10T05:13:43.102Z,753.00
2023-05-10T05:14:43.143Z,751.00
2023-05-10T05:15:43.209Z,749.00
2023-05-10T05:16:43.247Z,747.00
2023-05-10T05:17:43.415Z,747.00
2023-05-10T05:18:43.332Z,750.00
2023-05-10T05:19:43.390Z,751.00
2023-05-10T05:20:43.442Z,750.00
2023-05-10T05:21:43.514Z,751.00
2023-05-10T05:22:43.492Z,749.00
2023-05-10T05:23:43.543Z,745.00
2023-05-10T05:24:43.587Z,743.00
2023-05-10T05:25:43.628Z,743.00
2023-05-10T05:26:43.682Z,742.00
2023-05-10T05:27:43.896Z,743.00
2023-05-10T05:28:43.783Z,743.00
2023-05-10T05:29:43.826Z,742.00
2023-05-10T05:30:43.831Z,737.00
2023-05-10T05:31:43.933Z,736.00
2023-05-10T05:32:43.973Z,732.00
2023-05-10T05:33:44.031Z,732.00
2023-05-10T05:34:44.033Z,732.00
2023-05-10T05:35:45.841Z,733.00
2023-05-10T05:36:44.140Z,733.00
2023-05-10T05:37:44.209Z,732.00
2023-05-10T05:38:44.242Z,732.00
2023-05-10T05:39:44.243Z,734.00
2023-05-10T05:40:44.309Z,734.00
2023-05-10T05:41:44.335Z,737.00
2023-05-10T05:42:44.390Z,735.00
2023-05-10T05:43:44.442Z,737.00
2023-05-10T05:44:44.789Z,734.00
2023-05-10T05:45:44.553Z,734.00
2023-05-10T05:46:44.607Z,734.00
2023-05-10T05:47:44.646Z,733.00
2023-05-10T05:48:44.657Z,780.00
2023-05-10T05:49:44.740Z,778.00
2023-05-10T05:50:44.769Z,781.00
2023-05-10T05:51:44.879Z,841.00
2023-05-10T05:52:44.982Z,857.00
2023-05-10T05:53:44.968Z,929.00
2023-05-10T05:54:45.270Z,927.00
2023-05-10T05:55:45.087Z,942.00
2023-05-10T05:56:45.122Z,965.00
2023-05-10T05:57:45.197Z,990.00
2023-05-10T05:58:45.259Z,1013.00
2023-05-10T05:59:45.247Z,1032.00
2023-05-10T06:00:45.315Z,1050.00
2023-05-10T06:01:45.364Z,1098.00
2023-05-10T06:02:45.519Z,1125.00
2023-05-10T06:03:45.469Z,1217.00
2023-05-10T06:04:45.763Z,1350.00
2023-05-10T06:05:45.503Z,1385.00
2023-05-10T06:06:45.485Z,1389.00
2023-05-10T06:07:45.653Z,1431.00
2023-05-10T06:08:45.493Z,1510.00
2023-05-10T06:09:45.547Z,1506.00
2023-05-10T06:10:45.543Z,1498.00
2023-05-10T06:11:45.531Z,1493.00
2023-05-10T06:12:45.547Z,1477.00
2023-05-10T06:13:45.581Z,1479.00
2023-05-10T06:14:45.758Z,1487.00
2023-05-10T06:15:45.554Z,1487.00
2023-05-10T06:16:45.561Z,1490.00
2023-05-10T06:17:45.646Z,1494.00
2023-05-10T06:18:45.532Z,1501.00
2023-05-10T06:19:45.532Z,1497.00
2023-05-10T06:20:45.549Z,1499.00
2023-05-10T06:21:45.553Z,1520.00
2023-05-10T06:22:45.579Z,1538.00
2023-05-10T06:23:45.700Z,1596.00
2023-05-10T06:24:45.792Z,1599.00
2023-05-10T06:25:45.751Z,1589.00
2023-05-10T06:26:45.808Z,1590.00
2023-05-10T06:27:49.076Z,1608.00
2023-05-10T06:28:46.837Z,1625.00
2023-05-10T06:29:46.284Z,1634.00
2023-05-10T06:30:45.868Z,1636.00
2023-05-10T06:31:45.847Z,1646.00
2023-05-10T06:32:45.881Z,1642.00
2023-05-10T06:33:45.841Z,1648.00
2023-05-10T06:34:46.231Z,1683.00
2023-05-10T06:35:45.815Z,1682.00
2023-05-10T06:36:45.813Z,1702.00
2023-05-10T06:37:45.823Z,1711.00
2023-05-10T06:38:45.910Z,1721.00
2023-05-10T06:39:45.903Z,1732.00
2023-05-10T06:40:45.916Z,1737.00
2023-05-10T06:41:45.936Z,1746.00
2023-05-10T06:42:46.022Z,1775.00
2023-05-10T06:43:46.026Z,1780.00
2023-05-10T06:44:46.065Z,1779.00
2023-05-10T06:45:46.061Z,1788.00
2023-05-10T06:46:46.208Z,1792.00
2023-05-10T06:47:46.175Z,1798.00
2023-05-10T06:48:46.165Z,1808.00
2023-05-10T06:49:46.177Z,1838.00
2023-05-10T06:50:46.225Z,1851.00
2023-05-10T06:51:46.224Z,1850.00
2023-05-10T06:52:46.255Z,1680.00
2023-05-10T06:53:46.314Z,1619.00
2023-05-10T06:54:46.770Z,1733.00
2023-05-10T06:55:46.424Z,1629.00
2023-05-10T06:56:46.466Z,1357.00
2023-05-10T06:57:46.527Z,1348.00
2023-05-10T06:58:46.627Z,1275.00
2023-05-10T06:59:46.669Z,1334.00
2023-05-10T07:00:46.742Z,1328.00
2023-05-10T07:01:46.801Z,1194.00
2023-05-10T07:02:46.824Z,1078.00
2023-05-10T07:03:46.801Z,1275.00
2023-05-10T07:04:46.798Z,1185.00
2023-05-10T07:05:46.757Z,1244.00
2023-05-10T07:06:46.780Z,1269.00
2023-05-10T07:07:46.814Z,1134.00
2023-05-10T07:08:46.765Z,1260.00
2023-05-10T07:09:47.301Z,1276.00
2023-05-10T07:10:46.779Z,1278.00
2023-05-10T07:11:46.816Z,1263.00
2023-05-10T07:12:46.881Z,1244.00
2023-05-10T07:13:46.780Z,1153.00
2023-05-10T07:14:46.803Z,1237.00
2023-05-10T07:15:46.783Z,1214.00
2023-05-10T07:16:46.868Z,1225.00
2023-05-10T07:17:46.870Z,1251.00
2023-05-10T07:18:46.819Z,1299.00
2023-05-10T07:19:46.907Z,1316.00
2023-05-10T07:20:46.964Z,1327.00
2023-05-10T07:21:47.012Z,1360.00
2023-05-10T07:22:47.025Z,1390.00
2023-05-10T07:23:47.091Z,1413.00
2023-05-10T07:24:47.297Z,1433.00
2023-05-10T07:25:47.177Z,1455.00
2023-05-10T07:26:47.213Z,1468.00
2023-05-10T07:27:47.292Z,1491.00
2023-05-10T07:28:47.333Z,1506.00
2023-05-10T07:29:47.337Z,1537.00
2023-05-10T07:30:47.478Z,1557.00
2023-05-10T07:31:47.449Z,1576.00
2023-05-10T07:32:47.525Z,1587.00
2023-05-10T07:33:47.491Z,1606.00
2023-05-10T07:34:47.509Z,1650.00
2023-05-10T07:35:47.512Z,1673.00
2023-05-10T07:36:47.673Z,1680.00
2023-05-10T07:37:47.587Z,1692.00
2023-05-10T07:38:47.598Z,1741.00
2023-05-10T07:39:47.592Z,1755.00
2023-05-10T07:40:47.658Z,1762.00
2023-05-10T07:41:47.639Z,1805.00
2023-05-10T07:42:47.692Z,1824.00
2023-05-10T07:43:47.716Z,1835.00
2023-05-10T07:44:47.787Z,1857.00
2023-05-10T07:45:47.873Z,1880.00
2023-05-10T07:46:47.758Z,1902.00
2023-05-10T07:47:47.875Z,1907.00
2023-05-10T07:48:47.821Z,1916.00
2023-05-10T07:49:48.275Z,2009.00
2023-05-10T07:50:47.865Z,2001.00
2023-05-10T07:51:47.855Z,2017.00
2023-05-10T07:52:47.894Z,2028.00
2023-05-10T07:53:47.921Z,2087.00
2023-05-10T07:54:47.960Z,2120.00
2023-05-10T07:55:47.924Z,2150.00
2023-05-10T07:56:47.942Z,2188.00
2023-05-10T07:57:47.983Z,2265.00
2023-05-10T07:58:47.992Z,2285.00
2023-05-10T07:59:48.301Z,2296.00
2023-05-10T08:00:48.004Z,2315.00
2023-05-10T08:01:47.990Z,2417.00
2023-05-10T08:02:48.073Z,2432.00
2023-05-10T08:03:48.085Z,2462.00
2023-05-10T08:04:48.278Z,2487.00
2023-05-10T08:05:48.026Z,2535.00
2023-05-10T08:06:48.087Z,2575.00
2023-05-10T08:07:48.071Z,2613.00
2023-05-10T08:08:48.101Z,2639.00
2023-05-10T08:09:48.296Z,2713.00
2023-05-10T08:10:48.143Z,2722.00
2023-05-10T08:11:48.178Z,2744.00
2023-05-10T08:12:48.177Z,2789.00
2023-05-10T08:13:48.234Z,2819.00
2023-05-10T08:14:48.271Z,2896.00
2023-05-10T08:15:48.349Z,2896.00
2023-05-10T08:16:48.378Z,2923.00
2023-05-10T08:17:48.465Z,2962.00
2023-05-10T08:18:49.571Z,3052.00
2023-05-10T08:19:48.793Z,3064.00
2023-05-10T08:20:48.620Z,3096.00
2023-05-10T08:21:48.716Z,3108.00
2023-05-10T08:22:50.000Z,3121.00
2023-05-10T08:23:48.732Z,3124.00
2023-05-10T08:24:48.794Z,3107.00
2023-05-10T08:25:48.741Z,3070.00
2023-05-10T08:26:48.689Z,2987.00
2023-05-10T08:27:48.708Z,2978.00
2023-05-10T08:28:48.711Z,2961.00
2023-05-10T08:29:50.445Z,2948.00
2023-05-10T08:30:48.669Z,2925.00
2023-05-10T08:31:48.700Z,2916.00
2023-05-10T08:32:48.725Z,2884.00
2023-05-10T08:33:48.655Z,2859.00
2023-05-10T08:34:48.808Z,2854.00
2023-05-10T08:35:48.616Z,2840.00
2023-05-10T08:36:48.643Z,2833.00
2023-05-10T08:37:48.672Z,2823.00
2023-05-10T08:38:49.675Z,2724.00
2023-05-10T08:39:48.791Z,2718.00
2023-05-10T08:40:48.847Z,2696.00
2023-05-10T08:41:48.920Z,2670.00
2023-05-10T08:42:48.929Z,2634.00
2023-05-10T08:43:49.036Z,2581.00
2023-05-10T08:44:49.595Z,2598.00
2023-05-10T08:45:49.150Z,2591.00
2023-05-10T08:46:49.219Z,2564.00
2023-05-10T08:47:49.232Z,2536.00
2023-05-10T08:48:49.227Z,2469.00
2023-05-10T08:49:49.294Z,2466.00
2023-05-10T08:50:49.212Z,2459.00
2023-05-10T08:51:49.217Z,2456.00
2023-05-10T08:52:49.260Z,2445.00
2023-05-10T08:53:49.200Z,2428.00
2023-05-10T08:54:49.242Z,2413.00
2023-05-10T08:55:49.213Z,2378.00
2023-05-10T08:56:49.905Z,2323.00
2023-05-10T08:57:49.274Z,2272.00
2023-05-10T08:58:49.277Z,2252.00
2023-05-10T08:59:49.311Z,2238.00
2023-05-10T09:00:49.930Z,2229.00
2023-05-10T09:01:49.354Z,2204.00
2023-05-10T09:02:49.401Z,2145.00
2023-05-10T09:03:49.418Z,1997.00
2023-05-10T09:04:49.439Z,1892.00
2023-05-10T09:05:49.476Z,1873.00
2023-05-10T09:06:49.500Z,1829.00
2023-05-10T09:07:49.503Z,1831.00
2023-05-10T09:08:49.519Z,1831.00
2023-05-10T09:09:49.517Z,1836.00
2023-05-10T09:10:49.551Z,1847.00
2023-05-10T09:11:49.582Z,1857.00
2023-05-10T09:12:49.662Z,1862.00
2023-05-10T09:13:49.612Z,1865.00
2023-05-10T09:14:49.654Z,1869.00
2023-05-10T09:15:49.798Z,1871.00
2023-05-10T09:16:49.766Z,1870.00
2023-05-10T09:17:49.828Z,1871.00
2023-05-10T09:18:49.805Z,1876.00
2023-05-10T09:19:49.790Z,1877.00
2023-05-10T09:20:49.788Z,1875.00
2023-05-10T09:21:49.834Z,1876.00
2023-05-10T09:22:49.909Z,1876.00
2023-05-10T09:23:49.938Z,1877.00
2023-05-10T09:24:49.984Z,1874.00
2023-05-10T09:25:50.354Z,1871.00
2023-05-10T09:26:50.113Z,1867.00
2023-05-10T09:27:50.054Z,1865.00
2023-05-10T09:28:50.111Z,1866.00
2023-05-10T09:29:50.144Z,1868.00
2023-05-10T09:30:50.205Z,1870.00
2023-05-10T09:31:50.185Z,1869.00
2023-05-10T09:32:50.363Z,1864.00
2023-05-10T09:33:50.257Z,1860.00
2023-05-10T09:34:50.334Z,1858.00
2023-05-10T09:35:50.823Z,1857.00
2023-05-10T09:36:50.428Z,1856.00
2023-05-10T09:37:50.468Z,1858.00
2023-05-10T09:38:50.496Z,1862.00
2023-05-10T09:39:50.512Z,1862.00
2023-05-10T09:40:50.865Z,1863.00
2023-05-10T09:41:50.628Z,1856.00
2023-05-10T09:42:50.663Z,1851.00
2023-05-10T09:43:50.708Z,1847.00
2023-05-10T09:44:50.756Z,1848.00
2023-05-10T09:45:50.870Z,1846.00
2023-05-10T09:46:50.827Z,1845.00
2023-05-10T09:47:50.974Z,1843.00
2023-05-10T09:48:50.960Z,1841.00
2023-05-10T09:49:51.037Z,1842.00
2023-05-10T09:50:51.381Z,1839.00
2023-05-10T09:51:51.089Z,1838.00
2023-05-10T09:52:51.165Z,1837.00
2023-05-10T09:53:51.189Z,1833.00
2023-05-10T09:54:51.264Z,1830.00
2023-05-10T09:55:51.335Z,1829.00
2023-05-10T09:56:51.319Z,1831.00
2023-05-10T09:57:51.400Z,1829.00
2023-05-10T09:58:51.464Z,1827.00
2023-05-10T09:59:51.531Z,1826.00
2023-05-10T10:00:51.540Z,1821.00
2023-05-10T10:01:51.700Z,1817.00
2023-05-10T10:02:51.709Z,1813.00
2023-05-10T10:03:51.745Z,1812.00
2023-05-10T10:04:51.906Z,1810.00
2023-05-10T10:05:51.854Z,1809.00
2023-05-10T10:06:51.916Z,1809.00
2023-05-10T10:07:51.977Z,1808.00
2023-05-10T10:08:52.000Z,1803.00
2023-05-10T10:09:52.096Z,1804.00
2023-05-10T10:10:52.153Z,1808.00
2023-05-10T10:11:52.180Z,1804.00
2023-05-10T10:12:52.255Z,1805.00
2023-05-10T10:13:52.301Z,1805.00
2023-05-10T10:14:52.368Z,1805.00
2023-05-10T10:15:52.449Z,1803.00
2023-05-10T10:17:05.716Z,1807.00
2023-05-10T10:17:53.522Z,1803.00
2023-05-10T10:18:52.532Z,1803.00
2023-05-10T10:19:52.473Z,1798.00
2023-05-10T10:20:52.438Z,1797.00
2023-05-10T10:21:52.448Z,1794.00
2023-05-10T10:22:52.433Z,1794.00
2023-05-10T10:23:52.453Z,1793.00
2023-05-10T10:24:52.434Z,1791.00
2023-05-10T10:25:52.834Z,1787.00
2023-05-10T10:26:52.577Z,1781.00
2023-05-10T10:27:52.707Z,1777.00
2023-05-10T10:28:52.695Z,1773.00
2023-05-10T10:29:52.742Z,1773.00
2023-05-10T10:30:52.810Z,1772.00
2023-05-10T10:31:52.885Z,1769.00
2023-05-10T10:32:52.982Z,1772.00
2023-05-10T10:33:52.967Z,1768.00
2023-05-10T10:34:53.007Z,1768.00
2023-05-10T10:35:53.067Z,1765.00
2023-05-10T10:36:53.159Z,1760.00
2023-05-10T10:37:53.219Z,1756.00
2023-05-10T10:38:53.294Z,1753.00
2023-05-10T10:39:53.465Z,1754.00
2023-05-10T10:40:54.256Z,1756.00
2023-05-10T10:41:53.515Z,1753.00
2023-05-10T10:42:53.580Z,1749.00
2023-05-10T10:43:53.618Z,1743.00
2023-05-10T10:44:53.663Z,1739.00
2023-05-10T10:45:53.726Z,1737.00
2023-05-10T10:46:53.827Z,1735.00
2023-05-10T10:47:53.879Z,1734.00
2023-05-10T10:48:53.901Z,1731.00
2023-05-10T10:49:53.955Z,1732.00
2023-05-10T10:50:54.332Z,1731.00
2023-05-10T10:51:54.072Z,1730.00
2023-05-10T10:52:54.170Z,1729.00
2023-05-10T10:53:54.182Z,1727.00
2023-05-10T10:54:54.254Z,1724.00
2023-05-10T10:55:54.317Z,1721.00
2023-05-10T10:56:54.401Z,1720.00
2023-05-10T10:57:54.436Z,1717.00
2023-05-10T10:58:54.487Z,1716.00
2023-05-10T10:59:54.563Z,1712.00
2023-05-10T11:00:54.894Z,1709.00
2023-05-10T11:01:54.683Z,1706.00
2023-05-10T11:02:54.824Z,1704.00
2023-05-10T11:03:54.829Z,1706.00
2023-05-10T11:04:54.857Z,1704.00
2023-05-10T11:05:55.358Z,1701.00
2023-05-10T11:06:54.944Z,1699.00
2023-05-10T11:07:55.976Z,1699.00
2023-05-10T11:08:54.935Z,1696.00
2023-05-10T11:09:54.915Z,1694.00
2023-05-10T11:10:55.376Z,1690.00
2023-05-10T11:11:54.933Z,1685.00
2023-05-10T11:12:54.927Z,1682.00
2023-05-10T11:13:54.944Z,1681.00
2023-05-10T11:14:54.948Z,1679.00
2023-05-10T11:15:55.351Z,1676.00
2023-05-10T11:16:55.047Z,1674.00
2023-05-10T11:17:55.106Z,1672.00
2023-05-10T11:18:55.186Z,1671.00
2023-05-10T11:19:55.248Z,1667.00
2023-05-10T11:20:55.348Z,1661.00
2023-05-10T11:21:55.380Z,1662.00
2023-05-10T11:22:55.402Z,1663.00
2023-05-10T11:23:55.484Z,1661.00
2023-05-10T11:24:55.536Z,1660.00
2023-05-10T11:25:55.830Z,1658.00
2023-05-10T11:26:55.661Z,1654.00
2023-05-10T11:27:55.701Z,1648.00
2023-05-10T11:28:55.785Z,1642.00
2023-05-10T11:29:55.823Z,1642.00
2023-05-10T11:30:56.368Z,1642.00
2023-05-10T11:31:55.980Z,1635.00
2023-05-10T11:32:56.057Z,1631.00
2023-05-10T11:33:56.094Z,1627.00
2023-05-10T11:34:56.142Z,1616.00
2023-05-10T11:35:56.904Z,1605.00
2023-05-10T11:36:56.315Z,1598.00
2023-05-10T11:37:56.349Z,1602.00
2023-05-10T11:38:56.429Z,1603.00
2023-05-10T11:39:56.440Z,1602.00
2023-05-10T11:40:56.869Z,1604.00
2023-05-10T11:41:56.581Z,1601.00
2023-05-10T11:42:56.624Z,1597.00
2023-05-10T11:43:56.693Z,1595.00
2023-05-10T11:44:56.761Z,1592.00
2023-05-10T11:45:56.825Z,1591.00
2023-05-10T11:46:56.872Z,1588.00
2023-05-10T11:47:56.929Z,1586.00
2023-05-10T11:48:56.992Z,1580.00
2023-05-10T11:49:57.015Z,1575.00
2023-05-10T11:50:57.345Z,1574.00
2023-05-10T11:51:57.108Z,1572.00
2023-05-10T11:52:57.185Z,1569.00
2023-05-10T11:53:57.200Z,1561.00
2023-05-10T11:54:57.227Z,1560.00
2023-05-10T11:55:57.345Z,1557.00
2023-05-10T11:56:57.354Z,1559.00
2023-05-10T11:57:57.393Z,1557.00
2023-05-10T11:58:57.412Z,1556.00
2023-05-10T11:59:57.503Z,1552.00
2023-05-10T12:00:57.539Z,1553.00
2023-05-10T12:01:57.596Z,1553.00
2023-05-10T12:02:57.738Z,1553.00
2023-05-10T12:03:57.912Z,1549.00
2023-05-10T12:04:57.766Z,1547.00
2023-05-10T12:05:57.881Z,1547.00
2023-05-10T12:06:57.753Z,1548.00
2023-05-10T12:07:57.843Z,1546.00
2023-05-10T12:08:57.857Z,1546.00
2023-05-10T12:09:57.870Z,1548.00
2023-05-10T12:10:58.377Z,1543.00
2023-05-10T12:11:57.971Z,1545.00
2023-05-10T12:12:58.032Z,1542.00
2023-05-10T12:13:58.062Z,1541.00
2023-05-10T12:14:58.094Z,1541.00
2023-05-10T12:15:58.411Z,1542.00
2023-05-10T12:16:58.170Z,1542.00